sensor_id;sensor_type;location;lat;lon;timestamp;P1;durP1;ratioP1;P2;durP2;ratioP2
19235;SDS011;9752;54.270;12.470;2023-05-10T00:00:32;21.00;;;19.60;;
19235;SDS011;9752;54.270;12.470;2023-05-10T00:05:34;20.53;;;19.00;;
19235;SDS011;9752;54.270;12.470;2023-05-10T00:10:35;21.03;;;19.43;;
19235;SDS011;9752;54.270;12.470;2023-05-10T00:15:39;19.97;;;18.67;;
19235;SDS011;9752;54.270;12.470;2023-05-10T00:20:40;20.53;;;18.93;;
19235;SDS011;9752;54.270;12.470;2023-05-10T00:25:42;20.33;;;19.00;;
19235;SDS011;9752;54.270;12.470;2023-05-10T00:30:45;19.53;;;18.10;;
19235;SDS011;9752;54.270;12.470;2023-05-10T00:35:46;19.97;;;18.67;;
19235;SDS011;9752;54.270;12.470;2023-05-10T00:40:49;20.57;;;18.80;;
19235;SDS011;9752;54.270;12.470;2023-05-10T00:46:00;19.53;;;18.23;;
19235;SDS011;9752;54.270;12.470;2023-05-10T00:51:02;20.73;;;18.90;;
19235;SDS011;9752;54.270;12.470;2023-05-10T00:56:03;19.90;;;18.57;;
19235;SDS011;9752;54.270;12.470;2023-05-10T01:01:07;19.87;;;18.37;;
19235;SDS011;9752;54.270;12.470;2023-05-10T01:06:10;20.23;;;18.83;;
19235;SDS011;9752;54.270;12.470;2023-05-10T01:11:12;20.23;;;18.83;;
19235;SDS011;9752;54.270;12.470;2023-05-10T01:16:15;20.67;;;19.27;;
19235;SDS011;9752;54.270;12.470;2023-05-10T01:21:19;19.53;;;18.30;;
19235;SDS011;9752;54.270;12.470;2023-05-10T01:26:34;19.73;;;18.40;;
19235;SDS011;9752;54.270;12.470;2023-05-10T01:31:59;20.33;;;18.93;;
19235;SDS011;9752;54.270;12.470;2023-05-10T01:37:19;20.33;;;19.10;;
19235;SDS011;9752;54.270;12.470;2023-05-10T01:42:26;20.33;;;19.13;;
19235;SDS011;9752;54.270;12.470;2023-05-10T01:47:38;20.20;;;18.90;;
19235;SDS011;9752;54.270;12.470;2023-05-10T01:52:44;20.97;;;19.47;;
19235;SDS011;9752;54.270;12.470;2023-05-10T01:57:52;19.20;;;17.90;;
19235;SDS011;9752;54.270;12.470;2023-05-10T02:03:06;19.70;;;18.00;;
19235;SDS011;9752;54.270;12.470;2023-05-10T02:08:11;20.07;;;18.57;;
19235;SDS011;9752;54.270;12.470;2023-05-10T02:13:14;20.33;;;18.67;;
19235;SDS011;9752;54.270;12.470;2023-05-10T02:18:19;19.50;;;17.80;;
19235;SDS011;9752;54.270;12.470;2023-05-10T02:23:23;19.27;;;17.90;;
19235;SDS011;9752;54.270;12.470;2023-05-10T02:28:26;19.20;;;17.87;;
19235;SDS011;9752;54.270;12.470;2023-05-10T02:33:31;19.90;;;18.07;;
19235;SDS011;9752;54.270;12.470;2023-05-10T02:38:34;18.70;;;17.30;;
19235;SDS011;9752;54.270;12.470;2023-05-10T02:43:37;20.13;;;18.53;;
19235;SDS011;9752;54.270;12.470;2023-05-10T02:48:42;19.70;;;18.13;;
19235;SDS011;9752;54.270;12.470;2023-05-10T02:53:45;17.40;;;16.33;;
19235;SDS011;9752;54.270;12.470;2023-05-10T02:58:49;17.93;;;16.70;;
19235;SDS011;9752;54.270;12.470;2023-05-10T03:03:52;20.17;;;18.40;;
19235;SDS011;9752;54.270;12.470;2023-05-10T03:08:54;18.27;;;17.03;;
19235;SDS011;9752;54.270;12.470;2023-05-10T03:13:59;18.87;;;17.07;;
19235;SDS011;9752;54.270;12.470;2023-05-10T03:19:17;18.63;;;17.23;;
19235;SDS011;9752;54.270;12.470;2023-05-10T03:24:27;18.20;;;16.67;;
19235;SDS011;9752;54.270;12.470;2023-05-10T03:29:32;18.20;;;16.70;;
19235;SDS011;9752;54.270;12.470;2023-05-10T03:34:42;17.60;;;16.07;;
19235;SDS011;9752;54.270;12.470;2023-05-10T03:39:44;18.03;;;16.63;;
19235;SDS011;9752;54.270;12.470;2023-05-10T03:44:46;17.80;;;16.07;;
19235;SDS011;9752;54.270;12.470;2023-05-10T03:49:50;17.47;;;15.97;;
19235;SDS011;9752;54.270;12.470;2023-05-10T03:54:52;16.80;;;15.37;;
19235;SDS011;9752;54.270;12.470;2023-05-10T03:59:54;18.27;;;16.73;;
19235;SDS011;9752;54.270;12.470;2023-05-10T04:04:58;17.67;;;16.27;;
19235;SDS011;9752;54.270;12.470;2023-05-10T04:10:00;18.03;;;16.73;;
19235;SDS011;9752;54.270;12.470;2023-05-10T04:15:02;18.87;;;17.53;;
19235;SDS011;9752;54.270;12.470;2023-05-10T04:20:07;18.60;;;17.03;;
19235;SDS011;9752;54.270;12.470;2023-05-10T04:25:09;17.70;;;16.57;;
19235;SDS011;9752;54.270;12.470;2023-05-10T04:30:11;17.70;;;16.37;;
19235;SDS011;9752;54.270;12.470;2023-05-10T04:35:14;19.47;;;17.57;;
19235;SDS011;9752;54.270;12.470;2023-05-10T04:40:16;17.03;;;15.60;;
19235;SDS011;9752;54.270;12.470;2023-05-10T04:45:18;18.20;;;16.70;;
19235;SDS011;9752;54.270;12.470;2023-05-10T04:50:21;17.90;;;16.47;;
19235;SDS011;9752;54.270;12.470;2023-05-10T04:55:23;17.50;;;16.17;;
19235;SDS011;9752;54.270;12.470;2023-05-10T05:00:25;19.37;;;17.43;;
19235;SDS011;9752;54.270;12.470;2023-05-10T05:05:28;20.27;;;17.93;;
19235;SDS011;9752;54.270;12.470;2023-05-10T05:10:29;18.90;;;17.60;;
19235;SDS011;9752;54.270;12.470;2023-05-10T05:15:31;19.53;;;18.13;;
19235;SDS011;9752;54.270;12.470;2023-05-10T05:20:34;19.47;;;18.13;;
19235;SDS011;9752;54.270;12.470;2023-05-10T05:25:36;19.57;;;18.23;;
19235;SDS011;9752;54.270;12.470;2023-05-10T05:30:38;19.57;;;18.17;;
19235;SDS011;9752;54.270;12.470;2023-05-10T05:35:41;19.93;;;18.30;;
19235;SDS011;9752;54.270;12.470;2023-05-10T05:40:47;20.63;;;18.90;;
19235;SDS011;9752;54.270;12.470;2023-05-10T05:45:49;18.93;;;17.63;;
19235;SDS011;9752;54.270;12.470;2023-05-10T05:50:55;18.97;;;17.73;;
19235;SDS011;9752;54.270;12.470;2023-05-10T05:55:57;18.97;;;17.70;;
19235;SDS011;9752;54.270;12.470;2023-05-10T06:00:59;19.93;;;18.37;;
19235;SDS011;9752;54.270;12.470;2023-05-10T06:06:02;19.17;;;18.07;;
19235;SDS011;9752;54.270;12.470;2023-05-10T06:11:05;18.80;;;17.27;;
19235;SDS011;9752;54.270;12.470;2023-05-10T06:16:06;19.10;;;17.83;;
19235;SDS011;9752;54.270;12.470;2023-05-10T06:21:09;17.87;;;16.43;;
19235;SDS011;9752;54.270;12.470;2023-05-10T06:26:11;18.50;;;17.30;;
19235;SDS011;9752;54.270;12.470;2023-05-10T06:31:14;17.67;;;16.57;;
19235;SDS011;9752;54.270;12.470;2023-05-10T06:36:17;18.20;;;17.00;;
19235;SDS011;9752;54.270;12.470;2023-05-10T06:41:19;18.67;;;17.27;;
19235;SDS011;9752;54.270;12.470;2023-05-10T06:46:21;17.87;;;16.83;;
19235;SDS011;9752;54.270;12.470;2023-05-10T06:51:24;18.43;;;17.07;;
19235;SDS011;9752;54.270;12.470;2023-05-10T06:56:26;17.60;;;16.27;;
19235;SDS011;9752;54.270;12.470;2023-05-10T07:01:27;17.90;;;16.80;;
19235;SDS011;9752;54.270;12.470;2023-05-10T07:06:30;18.13;;;16.77;;
19235;SDS011;9752;54.270;12.470;2023-05-10T07:11:33;16.73;;;15.73;;
19235;SDS011;9752;54.270;12.470;2023-05-10T07:16:35;17.73;;;16.40;;
19235;SDS011;9752;54.270;12.470;2023-05-10T07:21:38;17.30;;;16.30;;
19235;SDS011;9752;54.270;12.470;2023-05-10T07:26:40;18.00;;;16.90;;
19235;SDS011;9752;54.270;12.470;2023-05-10T07:31:42;18.10;;;16.90;;
19235;SDS011;9752;54.270;12.470;2023-05-10T07:36:45;18.33;;;17.03;;
19235;SDS011;9752;54.270;12.470;2023-05-10T07:41:47;17.30;;;16.13;;
19235;SDS011;9752;54.270;12.470;2023-05-10T07:46:48;16.90;;;15.67;;
19235;SDS011;9752;54.270;12.470;2023-05-10T07:51:51;17.10;;;16.10;;
19235;SDS011;9752;54.270;12.470;2023-05-10T07:56:56;15.93;;;14.93;;
19235;SDS011;9752;54.270;12.470;2023-05-10T08:01:58;16.47;;;15.33;;
19235;SDS011;9752;54.270;12.470;2023-05-10T08:07:01;15.63;;;14.73;;
19235;SDS011;9752;54.270;12.470;2023-05-10T08:12:02;16.17;;;15.10;;
19235;SDS011;9752;54.270;12.470;2023-05-10T08:17:04;16.50;;;15.50;;
19235;SDS011;9752;54.270;12.470;2023-05-10T08:22:07;16.70;;;15.60;;
19235;SDS011;9752;54.270;12.470;2023-05-10T08:27:09;16.00;;;14.93;;
19235;SDS011;9752;54.270;12.470;2023-05-10T08:32:11;16.33;;;14.97;;
19235;SDS011;9752;54.270;12.470;2023-05-10T08:37:14;16.53;;;15.13;;
19235;SDS011;9752;54.270;12.470;2023-05-10T08:42:16;17.00;;;15.43;;
19235;SDS011;9752;54.270;12.470;2023-05-10T08:47:23;17.23;;;15.63;;
19235;SDS011;9752;54.270;12.470;2023-05-10T08:52:27;16.43;;;15.33;;
19235;SDS011;9752;54.270;12.470;2023-05-10T08:57:31;17.17;;;15.80;;
19235;SDS011;9752;54.270;12.470;2023-05-10T09:02:33;16.87;;;15.60;;
19235;SDS011;9752;54.270;12.470;2023-05-10T09:07:36;16.37;;;15.47;;
19235;SDS011;9752;54.270;12.470;2023-05-10T09:12:38;17.40;;;16.10;;
19235;SDS011;9752;54.270;12.470;2023-05-10T09:17:40;16.47;;;15.50;;
19235;SDS011;9752;54.270;12.470;2023-05-10T09:22:44;17.80;;;16.20;;
19235;SDS011;9752;54.270;12.470;2023-05-10T09:27:46;17.03;;;15.70;;
19235;SDS011;9752;54.270;12.470;2023-05-10T09:32:48;17.07;;;16.07;;
19235;SDS011;9752;54.270;12.470;2023-05-10T09:37:53;16.40;;;15.30;;
19235;SDS011;9752;54.270;12.470;2023-05-10T09:42:57;17.87;;;16.37;;
19235;SDS011;9752;54.270;12.470;2023-05-10T09:48:00;17.40;;;15.73;;
19235;SDS011;9752;54.270;12.470;2023-05-10T09:53:04;16.57;;;15.47;;
19235;SDS011;9752;54.270;12.470;2023-05-10T09:58:07;16.37;;;15.47;;
19235;SDS011;9752;54.270;12.470;2023-05-10T10:03:13;17.43;;;16.10;;
19235;SDS011;9752;54.270;12.470;2023-05-10T10:08:17;16.50;;;15.50;;
19235;SDS011;9752;54.270;12.470;2023-05-10T10:13:19;16.67;;;15.50;;
19235;SDS011;9752;54.270;12.470;2023-05-10T10:18:21;17.20;;;16.13;;
19235;SDS011;9752;54.270;12.470;2023-05-10T10:23:28;17.80;;;16.37;;
19235;SDS011;9752;54.270;12.470;2023-05-10T10:28:32;18.20;;;17.00;;
19235;SDS011;9752;54.270;12.470;2023-05-10T10:39:08;16.67;;;15.53;;
19235;SDS011;9752;54.270;12.470;2023-05-10T10:49:43;17.00;;;15.90;;
19235;SDS011;9752;54.270;12.470;2023-05-10T10:54:53;18.37;;;17.10;;
19235;SDS011;9752;54.270;12.470;2023-05-10T11:00:17;16.67;;;15.77;;
19235;SDS011;9752;54.270;12.470;2023-05-10T11:16:11;17.70;;;16.57;;
19235;SDS011;9752;54.270;12.470;2023-05-10T11:21:14;17.17;;;16.13;;
19235;SDS011;9752;54.270;12.470;2023-05-10T11:26:18;16.83;;;15.87;;
19235;SDS011;9752;54.270;12.470;2023-05-10T11:31:23;16.20;;;15.40;;
19235;SDS011;9752;54.270;12.470;2023-05-10T11:36:27;16.97;;;16.00;;
19235;SDS011;9752;54.270;12.470;2023-05-10T11:41:32;17.07;;;16.17;;
19235;SDS011;9752;54.270;12.470;2023-05-10T11:46:34;16.73;;;15.70;;
19235;SDS011;9752;54.270;12.470;2023-05-10T11:51:37;16.60;;;15.50;;
19235;SDS011;9752;54.270;12.470;2023-05-10T11:56:40;16.87;;;15.30;;
19235;SDS011;9752;54.270;12.470;2023-05-10T12:01:42;16.20;;;15.40;;
19235;SDS011;9752;54.270;12.470;2023-05-10T12:06:44;16.07;;;14.97;;
19235;SDS011;9752;54.270;12.470;2023-05-10T12:11:48;16.17;;;15.13;;
19235;SDS011;9752;54.270;12.470;2023-05-10T12:16:49;16.90;;;15.80;;
19235;SDS011;9752;54.270;12.470;2023-05-10T12:21:51;16.27;;;15.57;;
19235;SDS011;9752;54.270;12.470;2023-05-10T12:26:54;16.80;;;15.90;;
19235;SDS011;9752;54.270;12.470;2023-05-10T12:31:57;17.17;;;16.07;;
19235;SDS011;9752;54.270;12.470;2023-05-10T12:36:59;16.87;;;15.97;;
19235;SDS011;9752;54.270;12.470;2023-05-10T12:42:03;17.13;;;16.10;;
19235;SDS011;9752;54.270;12.470;2023-05-10T12:47:04;16.47;;;15.47;;
19235;SDS011;9752;54.270;12.470;2023-05-10T12:52:06;16.97;;;15.97;;
19235;SDS011;9752;54.270;12.470;2023-05-10T12:57:09;17.00;;;16.00;;
19235;SDS011;9752;54.270;12.470;2023-05-10T13:02:11;16.77;;;15.80;;
19235;SDS011;9752;54.270;12.470;2023-05-10T13:07:14;17.27;;;15.77;;
19235;SDS011;9752;54.270;12.470;2023-05-10T13:12:17;16.60;;;15.70;;
19235;SDS011;9752;54.270;12.470;2023-05-10T13:17:19;16.43;;;15.43;;
19235;SDS011;9752;54.270;12.470;2023-05-10T13:22:21;16.63;;;15.73;;
19235;SDS011;9752;54.270;12.470;2023-05-10T13:27:24;16.17;;;15.07;;
19235;SDS011;9752;54.270;12.470;2023-05-10T13:32:25;16.47;;;15.73;;
19235;SDS011;9752;54.270;12.470;2023-05-10T13:37:27;16.00;;;15.20;;
19235;SDS011;9752;54.270;12.470;2023-05-10T13:42:30;15.67;;;14.87;;
19235;SDS011;9752;54.270;12.470;2023-05-10T13:47:33;17.03;;;16.03;;
19235;SDS011;9752;54.270;12.470;2023-05-10T13:52:35;16.50;;;15.73;;
19235;SDS011;9752;54.270;12.470;2023-05-10T13:57:38;16.13;;;15.40;;
19235;SDS011;9752;54.270;12.470;2023-05-10T14:02:40;16.97;;;16.03;;
19235;SDS011;9752;54.270;12.470;2023-05-10T14:07:42;17.63;;;16.70;;
19235;SDS011;9752;54.270;12.470;2023-05-10T14:12:45;17.17;;;16.20;;
19235;SDS011;9752;54.270;12.470;2023-05-10T14:17:47;17.10;;;16.10;;
19235;SDS011;9752;54.270;12.470;2023-05-10T14:22:48;17.27;;;16.10;;
19235;SDS011;9752;54.270;12.470;2023-05-10T14:27:51;17.70;;;16.70;;
19235;SDS011;9752;54.270;12.470;2023-05-10T14:32:54;18.03;;;16.87;;
19235;SDS011;9752;54.270;12.470;2023-05-10T14:37:58;16.67;;;15.90;;
19235;SDS011;9752;54.270;12.470;2023-05-10T14:43:01;16.80;;;15.80;;
19235;SDS011;9752;54.270;12.470;2023-05-10T14:48:03;16.60;;;15.80;;
19235;SDS011;9752;54.270;12.470;2023-05-10T14:53:05;17.10;;;16.33;;
19235;SDS011;9752;54.270;12.470;2023-05-10T14:58:08;16.60;;;15.90;;
19235;SDS011;9752;54.270;12.470;2023-05-10T15:03:10;17.83;;;16.80;;
19235;SDS011;9752;54.270;12.470;2023-05-10T15:08:12;17.40;;;16.50;;
19235;SDS011;9752;54.270;12.470;2023-05-10T15:13:15;17.20;;;16.13;;
19235;SDS011;9752;54.270;12.470;2023-05-10T15:18:16;16.85;;;16.00;;
19235;SDS011;9752;54.270;12.470;2023-05-10T15:23:18;17.63;;;16.70;;
19235;SDS011;9752;54.270;12.470;2023-05-10T15:28:21;17.40;;;16.23;;
19235;SDS011;9752;54.270;12.470;2023-05-10T15:33:23;17.80;;;16.13;;
19235;SDS011;9752;54.270;12.470;2023-05-10T15:38:25;16.55;;;15.75;;
19235;SDS011;9752;54.270;12.470;2023-05-10T15:43:28;17.20;;;16.15;;
19235;SDS011;9752;54.270;12.470;2023-05-10T15:48:29;17.20;;;16.25;;
19235;SDS011;9752;54.270;12.470;2023-05-10T15:53:31;18.10;;;16.92;;
19235;SDS011;9752;54.270;12.470;2023-05-10T15:58:34;17.65;;;16.80;;
19235;SDS011;9752;54.270;12.470;2023-05-10T16:03:36;17.27;;;16.27;;
19235;SDS011;9752;54.270;12.470;2023-05-10T16:08:38;16.83;;;15.85;;
19235;SDS011;9752;54.270;12.470;2023-05-10T16:13:41;16.20;;;15.30;;
19235;SDS011;9752;54.270;12.470;2023-05-10T16:18:43;17.00;;;15.95;;
19235;SDS011;9752;54.270;12.470;2023-05-10T16:23:44;16.42;;;15.60;;
19235;SDS011;9752;54.270;12.470;2023-05-10T16:28:47;17.27;;;16.47;;
19235;SDS011;9752;54.270;12.470;2023-05-10T16:33:49;17.17;;;16.27;;
19235;SDS011;9752;54.270;12.470;2023-05-10T16:38:51;17.60;;;16.00;;
19235;SDS011;9752;54.270;12.470;2023-05-10T16:43:54;16.73;;;15.73;;
19235;SDS011;9752;54.270;12.470;2023-05-10T16:48:56;16.03;;;15.00;;
19235;SDS011;9752;54.270;12.470;2023-05-10T16:53:58;15.87;;;14.90;;
19235;SDS011;9752;54.270;12.470;2023-05-10T16:59:01;16.33;;;15.30;;
19235;SDS011;9752;54.270;12.470;2023-05-10T17:04:03;16.80;;;15.90;;
19235;SDS011;9752;54.270;12.470;2023-05-10T17:09:05;16.87;;;15.73;;
19235;SDS011;9752;54.270;12.470;2023-05-10T17:14:08;16.17;;;14.93;;
19235;SDS011;9752;54.270;12.470;2023-05-10T17:19:10;15.10;;;14.13;;
19235;SDS011;9752;54.270;12.470;2023-05-10T17:24:12;15.87;;;14.93;;
19235;SDS011;9752;54.270;12.470;2023-05-10T17:29:15;15.13;;;14.40;;
19235;SDS011;9752;54.270;12.470;2023-05-10T17:34:16;20.20;;;18.87;;
19235;SDS011;9752;54.270;12.470;2023-05-10T17:39:18;19.30;;;18.10;;
19235;SDS011;9752;54.270;12.470;2023-05-10T17:44:21;20.93;;;19.33;;
19235;SDS011;9752;54.270;12.470;2023-05-10T17:49:24;19.80;;;18.50;;
19235;SDS011;9752;54.270;12.470;2023-05-10T17:54:27;20.47;;;19.17;;
19235;SDS011;9752;54.270;12.470;2023-05-10T17:59:30;21.43;;;19.73;;
19235;SDS011;9752;54.270;12.470;2023-05-10T18:04:32;21.83;;;20.10;;
19235;SDS011;9752;54.270;12.470;2023-05-10T18:09:34;20.40;;;19.07;;
19235;SDS011;9752;54.270;12.470;2023-05-10T18:14:37;19.87;;;18.67;;
19235;SDS011;9752;54.270;12.470;2023-05-10T18:19:39;21.47;;;19.70;;
19235;SDS011;9752;54.270;12.470;2023-05-10T18:24:41;21.03;;;19.60;;
19235;SDS011;9752;54.270;12.470;2023-05-10T18:29:44;20.03;;;18.63;;
19235;SDS011;9752;54.270;12.470;2023-05-10T18:34:45;21.43;;;19.93;;
19235;SDS011;9752;54.270;12.470;2023-05-10T18:39:47;20.30;;;18.80;;
19235;SDS011;9752;54.270;12.470;2023-05-10T18:44:50;21.83;;;20.30;;
19235;SDS011;9752;54.270;12.470;2023-05-10T18:49:52;22.63;;;21.00;;
19235;SDS011;9752;54.270;12.470;2023-05-10T18:54:54;20.97;;;19.40;;
19235;SDS011;9752;54.270;12.470;2023-05-10T18:59:57;22.60;;;20.67;;
19235;SDS011;9752;54.270;12.470;2023-05-10T19:04:59;21.80;;;20.10;;
19235;SDS011;9752;54.270;12.470;2023-05-10T19:10:01;19.47;;;17.87;;
19235;SDS011;9752;54.270;12.470;2023-05-10T19:15:04;20.60;;;18.90;;
19235;SDS011;9752;54.270;12.470;2023-05-10T19:20:07;18.63;;;17.13;;
19235;SDS011;9752;54.270;12.470;2023-05-10T19:25:09;17.93;;;16.53;;
19235;SDS011;9752;54.270;12.470;2023-05-10T19:30:13;17.40;;;16.10;;
19235;SDS011;9752;54.270;12.470;2023-05-10T19:35:15;18.77;;;16.93;;
19235;SDS011;9752;54.270;12.470;2023-05-10T19:40:17;18.97;;;17.10;;
19235;SDS011;9752;54.270;12.470;2023-05-10T19:45:20;18.40;;;16.80;;
19235;SDS011;9752;54.270;12.470;2023-05-10T19:50:21;18.43;;;16.93;;
19235;SDS011;9752;54.270;12.470;2023-05-10T19:55:25;19.37;;;17.67;;
19235;SDS011;9752;54.270;12.470;2023-05-10T20:00:29;18.10;;;16.37;;
19235;SDS011;9752;54.270;12.470;2023-05-10T20:05:31;18.07;;;16.37;;
19235;SDS011;9752;54.270;12.470;2023-05-10T20:10:33;17.67;;;16.10;;
19235;SDS011;9752;54.270;12.470;2023-05-10T20:15:36;18.77;;;16.70;;
19235;SDS011;9752;54.270;12.470;2023-05-10T20:20:38;21.17;;;18.33;;
19235;SDS011;9752;54.270;12.470;2023-05-10T20:25:39;19.00;;;17.03;;
19235;SDS011;9752;54.270;12.470;2023-05-10T20:30:43;19.27;;;17.37;;
19235;SDS011;9752;54.270;12.470;2023-05-10T20:35:45;17.23;;;15.63;;
19235;SDS011;9752;54.270;12.470;2023-05-10T20:40:46;18.00;;;16.23;;
19235;SDS011;9752;54.270;12.470;2023-05-10T20:45:49;17.77;;;15.57;;
19235;SDS011;9752;54.270;12.470;2023-05-10T20:50:53;21.20;;;17.97;;
19235;SDS011;9752;54.270;12.470;2023-05-10T20:55:56;23.10;;;18.83;;
19235;SDS011;9752;54.270;12.470;2023-05-10T21:01:00;20.37;;;18.37;;
19235;SDS011;9752;54.270;12.470;2023-05-10T21:06:02;21.73;;;19.53;;
19235;SDS011;9752;54.270;12.470;2023-05-10T21:11:04;25.40;;;20.97;;
19235;SDS011;9752;54.270;12.470;2023-05-10T21:16:07;22.37;;;19.60;;
19235;SDS011;9752;54.270;12.470;2023-05-10T21:21:09;20.27;;;18.20;;
19235;SDS011;9752;54.270;12.470;2023-05-10T21:26:10;20.63;;;18.50;;
19235;SDS011;9752;54.270;12.470;2023-05-10T21:31:14;21.53;;;19.37;;
19235;SDS011;9752;54.270;12.470;2023-05-10T21:36:16;21.83;;;19.53;;
19235;SDS011;9752;54.270;12.470;2023-05-10T21:41:17;21.50;;;19.30;;
19235;SDS011;9752;54.270;12.470;2023-05-10T21:46:20;22.47;;;19.70;;
19235;SDS011;9752;54.270;12.470;2023-05-10T21:51:22;23.37;;;20.27;;
19235;SDS011;9752;54.270;12.470;2023-05-10T21:56:24;24.63;;;21.90;;
19235;SDS011;9752;54.270;12.470;2023-05-10T22:01:27;22.57;;;19.97;;
19235;SDS011;9752;54.270;12.470;2023-05-10T22:06:28;27.93;;;22.43;;
19235;SDS011;9752;54.270;12.470;2023-05-10T22:11:31;24.73;;;21.83;;
19235;SDS011;9752;54.270;12.470;2023-05-10T22:16:34;23.63;;;21.03;;
19235;SDS011;9752;54.270;12.470;2023-05-10T22:21:35;24.57;;;21.97;;
19235;SDS011;9752;54.270;12.470;2023-05-10T22:26:37;23.83;;;21.43;;
19235;SDS011;9752;54.270;12.470;2023-05-10T22:31:40;24.03;;;21.37;;
19235;SDS011;9752;54.270;12.470;2023-05-10T22:36:42;21.20;;;19.03;;
19235;SDS011;9752;54.270;12.470;2023-05-10T22:41:43;25.27;;;21.43;;
19235;SDS011;9752;54.270;12.470;2023-05-10T22:46:47;24.33;;;20.40;;
19235;SDS011;9752;54.270;12.470;2023-05-10T22:51:48;26.57;;;21.17;;
19235;SDS011;9752;54.270;12.470;2023-05-10T22:56:50;21.93;;;19.63;;
19235;SDS011;9752;54.270;12.470;2023-05-10T23:01:53;26.07;;;22.80;;
19235;SDS011;9752;54.270;12.470;2023-05-10T23:06:55;26.43;;;22.60;;
19235;SDS011;9752;54.270;12.470;2023-05-10T23:11:57;27.50;;;21.93;;
19235;SDS011;9752;54.270;12.470;2023-05-10T23:16:59;26.57;;;23.63;;
19235;SDS011;9752;54.270;12.470;2023-05-10T23:22:01;25.57;;;21.47;;
19235;SDS011;9752;54.270;12.470;2023-05-10T23:27:03;24.67;;;22.07;;
19235;SDS011;9752;54.270;12.470;2023-05-10T23:32:06;27.10;;;22.00;;
19235;SDS011;9752;54.270;12.470;2023-05-10T23:37:07;25.43;;;22.63;;
19235;SDS011;9752;54.270;12.470;2023-05-10T23:42:09;24.10;;;20.90;;
19235;SDS011;9752;54.270;12.470;2023-05-10T23:47:12;23.93;;;21.33;;
19235;SDS011;9752;54.270;12.470;2023-05-10T23:52:14;25.00;;;21.63;;
19235;SDS011;9752;54.270;12.470;2023-05-10T23:57:15;29.73;;;24.77;;
